sensor_id;sensor_type;location;lat;lon;timestamp;P1;durP1;ratioP1;P2;durP2;ratioP2
54328;SDS011;40710;51.120;13.136;2023-05-07T00:02:18;22.42;;;22.02;;
54328;SDS011;40710;51.120;13.136;2023-05-07T00:04:42;23.18;;;22.63;;
54328;SDS011;40710;51.120;13.136;2023-05-07T00:07:08;23.29;;;22.85;;
54328;SDS011;40710;51.120;13.136;2023-05-07T00:09:32;23.82;;;23.78;;
54328;SDS011;40710;51.120;13.136;2023-05-07T00:11:57;24.76;;;24.17;;
54328;SDS011;40710;51.120;13.136;2023-05-07T00:14:22;26.37;;;25.15;;
54328;SDS011;40710;51.120;13.136;2023-05-07T00:16:46;26.70;;;26.07;;
54328;SDS011;40710;51.120;13.136;2023-05-07T00:19:11;27.72;;;26.57;;
54328;SDS011;40710;51.120;13.136;2023-05-07T00:21:35;28.39;;;27.44;;
54328;SDS011;40710;51.120;13.136;2023-05-07T00:24:00;27.56;;;26.91;;
54328;SDS011;40710;51.120;13.136;2023-05-07T00:26:24;28.46;;;27.33;;
54328;SDS011;40710;51.120;13.136;2023-05-07T00:28:49;28.28;;;27.40;;
54328;SDS011;40710;51.120;13.136;2023-05-07T00:31:13;29.00;;;28.31;;
54328;SDS011;40710;51.120;13.136;2023-05-07T00:33:38;29.14;;;28.28;;
54328;SDS011;40710;51.120;13.136;2023-05-07T00:36:03;28.83;;;27.82;;
54328;SDS011;40710;51.120;13.136;2023-05-07T00:38:28;28.33;;;27.39;;
54328;SDS011;40710;51.120;13.136;2023-05-07T00:40:52;30.17;;;28.84;;
54328;SDS011;40710;51.120;13.136;2023-05-07T00:43:17;28.36;;;27.67;;
54328;SDS011;40710;51.120;13.136;2023-05-07T00:45:41;29.16;;;28.17;;
54328;SDS011;40710;51.120;13.136;2023-05-07T00:48:06;27.90;;;27.09;;
54328;SDS011;40710;51.120;13.136;2023-05-07T00:50:31;26.67;;;26.33;;
54328;SDS011;40710;51.120;13.136;2023-05-07T00:52:56;27.79;;;27.14;;
54328;SDS011;40710;51.120;13.136;2023-05-07T00:55:21;27.72;;;27.06;;
54328;SDS011;40710;51.120;13.136;2023-05-07T00:57:47;27.15;;;26.36;;
54328;SDS011;40710;51.120;13.136;2023-05-07T01:00:13;27.29;;;26.45;;
54328;SDS011;40710;51.120;13.136;2023-05-07T01:02:39;27.40;;;26.54;;
54328;SDS011;40710;51.120;13.136;2023-05-07T01:05:04;26.81;;;26.50;;
54328;SDS011;40710;51.120;13.136;2023-05-07T01:07:32;28.15;;;27.26;;
54328;SDS011;40710;51.120;13.136;2023-05-07T01:09:58;27.87;;;27.01;;
54328;SDS011;40710;51.120;13.136;2023-05-07T01:12:25;27.95;;;27.12;;
54328;SDS011;40710;51.120;13.136;2023-05-07T01:14:51;26.85;;;26.35;;
54328;SDS011;40710;51.120;13.136;2023-05-07T01:17:17;27.54;;;27.00;;
54328;SDS011;40710;51.120;13.136;2023-05-07T01:19:41;27.83;;;26.80;;
54328;SDS011;40710;51.120;13.136;2023-05-07T01:22:08;26.19;;;25.63;;
54328;SDS011;40710;51.120;13.136;2023-05-07T01:24:35;25.88;;;25.27;;
54328;SDS011;40710;51.120;13.136;2023-05-07T01:27:01;26.81;;;26.10;;
54328;SDS011;40710;51.120;13.136;2023-05-07T01:29:25;26.20;;;25.58;;
54328;SDS011;40710;51.120;13.136;2023-05-07T01:31:50;26.43;;;25.77;;
54328;SDS011;40710;51.120;13.136;2023-05-07T01:34:17;26.64;;;25.54;;
54328;SDS011;40710;51.120;13.136;2023-05-07T01:36:45;25.80;;;25.39;;
54328;SDS011;40710;51.120;13.136;2023-05-07T01:39:11;24.10;;;24.04;;
54328;SDS011;40710;51.120;13.136;2023-05-07T01:41:37;25.18;;;24.96;;
54328;SDS011;40710;51.120;13.136;2023-05-07T01:44:02;24.94;;;24.46;;
54328;SDS011;40710;51.120;13.136;2023-05-07T01:46:28;25.32;;;24.73;;
54328;SDS011;40710;51.120;13.136;2023-05-07T01:48:55;26.11;;;25.51;;
54328;SDS011;40710;51.120;13.136;2023-05-07T01:51:20;24.80;;;24.48;;
54328;SDS011;40710;51.120;13.136;2023-05-07T01:53:46;24.59;;;24.30;;
54328;SDS011;40710;51.120;13.136;2023-05-07T01:56:14;25.22;;;24.81;;
54328;SDS011;40710;51.120;13.136;2023-05-07T01:58:39;25.51;;;24.60;;
54328;SDS011;40710;51.120;13.136;2023-05-07T02:01:04;25.95;;;25.27;;
54328;SDS011;40710;51.120;13.136;2023-05-07T02:03:28;25.62;;;24.63;;
54328;SDS011;40710;51.120;13.136;2023-05-07T02:05:53;37.98;;;37.31;;
54328;SDS011;40710;51.120;13.136;2023-05-07T02:08:17;76.17;;;73.32;;
54328;SDS011;40710;51.120;13.136;2023-05-07T02:10:42;34.90;;;34.06;;
54328;SDS011;40710;51.120;13.136;2023-05-07T02:13:06;25.22;;;24.62;;
54328;SDS011;40710;51.120;13.136;2023-05-07T02:15:31;25.16;;;24.62;;
54328;SDS011;40710;51.120;13.136;2023-05-07T02:18:00;23.67;;;23.57;;
54328;SDS011;40710;51.120;13.136;2023-05-07T02:20:27;24.47;;;24.14;;
54328;SDS011;40710;51.120;13.136;2023-05-07T02:22:51;23.24;;;22.97;;
54328;SDS011;40710;51.120;13.136;2023-05-07T02:25:16;23.24;;;22.88;;
54328;SDS011;40710;51.120;13.136;2023-05-07T02:27:40;23.60;;;23.38;;
54328;SDS011;40710;51.120;13.136;2023-05-07T02:30:05;22.74;;;22.73;;
54328;SDS011;40710;51.120;13.136;2023-05-07T02:32:30;23.40;;;23.06;;
54328;SDS011;40710;51.120;13.136;2023-05-07T02:34:55;22.99;;;22.88;;
54328;SDS011;40710;51.120;13.136;2023-05-07T02:37:19;22.43;;;22.35;;
54328;SDS011;40710;51.120;13.136;2023-05-07T02:39:44;23.44;;;23.16;;
54328;SDS011;40710;51.120;13.136;2023-05-07T02:42:09;22.61;;;22.59;;
54328;SDS011;40710;51.120;13.136;2023-05-07T02:44:33;22.92;;;22.79;;
54328;SDS011;40710;51.120;13.136;2023-05-07T02:46:59;23.23;;;23.16;;
54328;SDS011;40710;51.120;13.136;2023-05-07T02:49:24;23.49;;;23.44;;
54328;SDS011;40710;51.120;13.136;2023-05-07T02:51:48;23.70;;;23.59;;
54328;SDS011;40710;51.120;13.136;2023-05-07T02:54:13;24.55;;;24.18;;
54328;SDS011;40710;51.120;13.136;2023-05-07T02:56:37;24.38;;;24.25;;
54328;SDS011;40710;51.120;13.136;2023-05-07T02:59:02;25.45;;;24.73;;
54328;SDS011;40710;51.120;13.136;2023-05-07T03:01:26;24.68;;;24.44;;
54328;SDS011;40710;51.120;13.136;2023-05-07T03:03:51;24.07;;;23.99;;
54328;SDS011;40710;51.120;13.136;2023-05-07T03:06:15;23.56;;;23.49;;
54328;SDS011;40710;51.120;13.136;2023-05-07T03:08:40;24.54;;;24.12;;
54328;SDS011;40710;51.120;13.136;2023-05-07T03:11:04;24.20;;;24.00;;
54328;SDS011;40710;51.120;13.136;2023-05-07T03:13:29;25.67;;;25.12;;
54328;SDS011;40710;51.120;13.136;2023-05-07T03:15:54;25.25;;;24.80;;
54328;SDS011;40710;51.120;13.136;2023-05-07T03:18:19;25.97;;;25.43;;
54328;SDS011;40710;51.120;13.136;2023-05-07T03:20:43;27.61;;;26.45;;
54328;SDS011;40710;51.120;13.136;2023-05-07T03:23:08;27.27;;;26.64;;
54328;SDS011;40710;51.120;13.136;2023-05-07T03:25:32;26.45;;;25.85;;
54328;SDS011;40710;51.120;13.136;2023-05-07T03:27:57;25.73;;;25.45;;
54328;SDS011;40710;51.120;13.136;2023-05-07T03:30:22;25.68;;;25.31;;
54328;SDS011;40710;51.120;13.136;2023-05-07T03:32:46;25.19;;;25.07;;
54328;SDS011;40710;51.120;13.136;2023-05-07T03:35:11;24.57;;;24.43;;
54328;SDS011;40710;51.120;13.136;2023-05-07T03:37:36;24.95;;;24.57;;
54328;SDS011;40710;51.120;13.136;2023-05-07T03:40:00;25.35;;;24.65;;
54328;SDS011;40710;51.120;13.136;2023-05-07T03:42:26;24.67;;;24.26;;
54328;SDS011;40710;51.120;13.136;2023-05-07T03:44:50;24.40;;;24.10;;
54328;SDS011;40710;51.120;13.136;2023-05-07T03:47:15;23.99;;;23.57;;
54328;SDS011;40710;51.120;13.136;2023-05-07T03:49:39;22.74;;;22.46;;
54328;SDS011;40710;51.120;13.136;2023-05-07T03:52:04;23.93;;;23.39;;
54328;SDS011;40710;51.120;13.136;2023-05-07T03:54:29;23.38;;;22.79;;
54328;SDS011;40710;51.120;13.136;2023-05-07T03:56:54;23.18;;;22.66;;
54328;SDS011;40710;51.120;13.136;2023-05-07T03:59:19;23.48;;;22.81;;
54328;SDS011;40710;51.120;13.136;2023-05-07T04:01:43;23.30;;;22.73;;
54328;SDS011;40710;51.120;13.136;2023-05-07T04:04:08;22.67;;;22.17;;
54328;SDS011;40710;51.120;13.136;2023-05-07T04:06:33;22.92;;;22.41;;
54328;SDS011;40710;51.120;13.136;2023-05-07T04:08:57;23.65;;;23.08;;
54328;SDS011;40710;51.120;13.136;2023-05-07T04:11:22;22.76;;;22.46;;
54328;SDS011;40710;51.120;13.136;2023-05-07T04:13:47;23.35;;;22.74;;
54328;SDS011;40710;51.120;13.136;2023-05-07T04:16:11;21.89;;;21.54;;
54328;SDS011;40710;51.120;13.136;2023-05-07T04:18:36;22.73;;;22.39;;
54328;SDS011;40710;51.120;13.136;2023-05-07T04:21:00;23.50;;;22.97;;
54328;SDS011;40710;51.120;13.136;2023-05-07T04:23:25;22.38;;;22.07;;
54328;SDS011;40710;51.120;13.136;2023-05-07T04:25:49;22.18;;;21.86;;
54328;SDS011;40710;51.120;13.136;2023-05-07T04:28:14;23.18;;;22.69;;
54328;SDS011;40710;51.120;13.136;2023-05-07T04:30:39;22.07;;;21.58;;
54328;SDS011;40710;51.120;13.136;2023-05-07T04:33:03;22.21;;;21.50;;
54328;SDS011;40710;51.120;13.136;2023-05-07T04:35:28;22.25;;;21.62;;
54328;SDS011;40710;51.120;13.136;2023-05-07T04:37:53;22.50;;;21.96;;
54328;SDS011;40710;51.120;13.136;2023-05-07T04:40:17;21.88;;;21.67;;
54328;SDS011;40710;51.120;13.136;2023-05-07T04:42:42;21.19;;;20.98;;
54328;SDS011;40710;51.120;13.136;2023-05-07T04:45:06;20.84;;;20.77;;
54328;SDS011;40710;51.120;13.136;2023-05-07T04:47:32;21.09;;;20.83;;
54328;SDS011;40710;51.120;13.136;2023-05-07T04:49:57;20.98;;;20.73;;
54328;SDS011;40710;51.120;13.136;2023-05-07T04:52:22;21.18;;;21.04;;
54328;SDS011;40710;51.120;13.136;2023-05-07T04:54:46;21.62;;;21.19;;
54328;SDS011;40710;51.120;13.136;2023-05-07T04:57:11;20.68;;;20.23;;
54328;SDS011;40710;51.120;13.136;2023-05-07T04:59:35;20.30;;;20.04;;
54328;SDS011;40710;51.120;13.136;2023-05-07T05:02:00;19.16;;;18.82;;
54328;SDS011;40710;51.120;13.136;2023-05-07T05:04:25;18.28;;;17.86;;
54328;SDS011;40710;51.120;13.136;2023-05-07T05:06:50;16.75;;;16.61;;
54328;SDS011;40710;51.120;13.136;2023-05-07T05:09:14;16.32;;;16.07;;
54328;SDS011;40710;51.120;13.136;2023-05-07T05:11:40;15.52;;;15.21;;
54328;SDS011;40710;51.120;13.136;2023-05-07T05:14:04;14.41;;;14.29;;
54328;SDS011;40710;51.120;13.136;2023-05-07T05:16:29;13.36;;;13.32;;
54328;SDS011;40710;51.120;13.136;2023-05-07T05:18:54;13.06;;;12.94;;
54328;SDS011;40710;51.120;13.136;2023-05-07T05:21:18;12.82;;;12.62;;
54328;SDS011;40710;51.120;13.136;2023-05-07T05:23:43;12.31;;;12.22;;
54328;SDS011;40710;51.120;13.136;2023-05-07T05:26:08;12.83;;;12.60;;
54328;SDS011;40710;51.120;13.136;2023-05-07T05:28:32;13.88;;;13.73;;
54328;SDS011;40710;51.120;13.136;2023-05-07T05:30:57;12.62;;;12.62;;
54328;SDS011;40710;51.120;13.136;2023-05-07T05:33:21;13.57;;;13.47;;
54328;SDS011;40710;51.120;13.136;2023-05-07T05:35:46;14.03;;;13.74;;
54328;SDS011;40710;51.120;13.136;2023-05-07T05:38:10;14.58;;;14.30;;
54328;SDS011;40710;51.120;13.136;2023-05-07T05:40:35;15.79;;;15.64;;
54328;SDS011;40710;51.120;13.136;2023-05-07T05:42:59;17.40;;;16.97;;
54328;SDS011;40710;51.120;13.136;2023-05-07T05:45:24;18.02;;;17.63;;
54328;SDS011;40710;51.120;13.136;2023-05-07T05:47:49;19.72;;;19.22;;
54328;SDS011;40710;51.120;13.136;2023-05-07T05:50:13;19.90;;;19.36;;
54328;SDS011;40710;51.120;13.136;2023-05-07T05:52:38;20.17;;;19.78;;
54328;SDS011;40710;51.120;13.136;2023-05-07T05:55:02;19.84;;;19.46;;
54328;SDS011;40710;51.120;13.136;2023-05-07T05:57:27;19.96;;;19.74;;
54328;SDS011;40710;51.120;13.136;2023-05-07T05:59:51;20.11;;;19.95;;
54328;SDS011;40710;51.120;13.136;2023-05-07T06:02:16;20.76;;;20.56;;
54328;SDS011;40710;51.120;13.136;2023-05-07T06:04:40;21.01;;;20.85;;
54328;SDS011;40710;51.120;13.136;2023-05-07T06:07:06;21.28;;;21.11;;
54328;SDS011;40710;51.120;13.136;2023-05-07T06:09:31;22.25;;;21.54;;
54328;SDS011;40710;51.120;13.136;2023-05-07T06:11:55;22.37;;;21.86;;
54328;SDS011;40710;51.120;13.136;2023-05-07T06:14:20;22.55;;;21.88;;
54328;SDS011;40710;51.120;13.136;2023-05-07T06:16:44;21.89;;;21.69;;
54328;SDS011;40710;51.120;13.136;2023-05-07T06:19:09;21.24;;;21.19;;
54328;SDS011;40710;51.120;13.136;2023-05-07T06:21:34;21.02;;;20.62;;
54328;SDS011;40710;51.120;13.136;2023-05-07T06:23:58;20.53;;;20.49;;
54328;SDS011;40710;51.120;13.136;2023-05-07T06:26:23;20.61;;;20.19;;
54328;SDS011;40710;51.120;13.136;2023-05-07T06:28:48;20.18;;;20.07;;
54328;SDS011;40710;51.120;13.136;2023-05-07T06:31:13;20.33;;;20.23;;
54328;SDS011;40710;51.120;13.136;2023-05-07T06:33:39;21.12;;;20.93;;
54328;SDS011;40710;51.120;13.136;2023-05-07T06:36:04;20.00;;;19.89;;
54328;SDS011;40710;51.120;13.136;2023-05-07T06:38:29;20.59;;;20.34;;
54328;SDS011;40710;51.120;13.136;2023-05-07T06:40:53;20.99;;;20.73;;
54328;SDS011;40710;51.120;13.136;2023-05-07T06:43:20;20.84;;;20.56;;
54328;SDS011;40710;51.120;13.136;2023-05-07T06:45:44;21.21;;;20.88;;
54328;SDS011;40710;51.120;13.136;2023-05-07T06:48:09;20.10;;;19.88;;
54328;SDS011;40710;51.120;13.136;2023-05-07T06:50:33;19.98;;;19.87;;
54328;SDS011;40710;51.120;13.136;2023-05-07T06:52:58;20.62;;;20.21;;
54328;SDS011;40710;51.120;13.136;2023-05-07T06:55:23;19.98;;;19.74;;
54328;SDS011;40710;51.120;13.136;2023-05-07T06:57:47;19.72;;;19.69;;
54328;SDS011;40710;51.120;13.136;2023-05-07T07:00:12;19.56;;;19.35;;
54328;SDS011;40710;51.120;13.136;2023-05-07T07:02:37;17.98;;;17.96;;
54328;SDS011;40710;51.120;13.136;2023-05-07T07:05:01;18.03;;;17.86;;
54328;SDS011;40710;51.120;13.136;2023-05-07T07:07:26;18.69;;;18.58;;
54328;SDS011;40710;51.120;13.136;2023-05-07T07:09:51;18.08;;;18.06;;
54328;SDS011;40710;51.120;13.136;2023-05-07T07:12:15;18.07;;;17.84;;
54328;SDS011;40710;51.120;13.136;2023-05-07T07:14:40;17.30;;;17.24;;
54328;SDS011;40710;51.120;13.136;2023-05-07T07:17:04;15.96;;;15.96;;
54328;SDS011;40710;51.120;13.136;2023-05-07T07:19:29;15.82;;;15.82;;
54328;SDS011;40710;51.120;13.136;2023-05-07T07:21:54;15.78;;;15.76;;
54328;SDS011;40710;51.120;13.136;2023-05-07T07:24:19;15.63;;;15.32;;
54328;SDS011;40710;51.120;13.136;2023-05-07T07:26:45;14.96;;;14.81;;
54328;SDS011;40710;51.120;13.136;2023-05-07T07:29:09;14.37;;;14.36;;
54328;SDS011;40710;51.120;13.136;2023-05-07T07:31:34;15.23;;;15.22;;
54328;SDS011;40710;51.120;13.136;2023-05-07T07:33:59;14.01;;;14.01;;
54328;SDS011;40710;51.120;13.136;2023-05-07T07:36:23;13.67;;;13.65;;
54328;SDS011;40710;51.120;13.136;2023-05-07T07:38:48;14.01;;;13.86;;
54328;SDS011;40710;51.120;13.136;2023-05-07T07:41:12;13.39;;;13.39;;
54328;SDS011;40710;51.120;13.136;2023-05-07T07:43:37;14.01;;;13.93;;
54328;SDS011;40710;51.120;13.136;2023-05-07T07:46:01;13.61;;;13.61;;
54328;SDS011;40710;51.120;13.136;2023-05-07T07:48:26;12.71;;;12.71;;
54328;SDS011;40710;51.120;13.136;2023-05-07T07:50:51;12.21;;;12.21;;
54328;SDS011;40710;51.120;13.136;2023-05-07T07:53:15;11.86;;;11.78;;
54328;SDS011;40710;51.120;13.136;2023-05-07T07:55:40;11.75;;;11.75;;
54328;SDS011;40710;51.120;13.136;2023-05-07T07:58:04;11.51;;;11.51;;
54328;SDS011;40710;51.120;13.136;2023-05-07T08:00:29;14.81;;;14.62;;
54328;SDS011;40710;51.120;13.136;2023-05-07T08:02:54;19.92;;;19.58;;
54328;SDS011;40710;51.120;13.136;2023-05-07T08:05:18;13.83;;;13.77;;
54328;SDS011;40710;51.120;13.136;2023-05-07T08:07:43;12.99;;;12.77;;
54328;SDS011;40710;51.120;13.136;2023-05-07T08:10:07;12.40;;;12.19;;
54328;SDS011;40710;51.120;13.136;2023-05-07T08:12:32;12.19;;;12.18;;
54328;SDS011;40710;51.120;13.136;2023-05-07T08:14:57;12.05;;;12.05;;
54328;SDS011;40710;51.120;13.136;2023-05-07T08:17:21;11.55;;;11.54;;
54328;SDS011;40710;51.120;13.136;2023-05-07T08:19:46;11.99;;;11.94;;
54328;SDS011;40710;51.120;13.136;2023-05-07T08:22:10;11.65;;;11.56;;
54328;SDS011;40710;51.120;13.136;2023-05-07T08:24:36;11.42;;;11.32;;
54328;SDS011;40710;51.120;13.136;2023-05-07T08:27:00;11.81;;;11.79;;
54328;SDS011;40710;51.120;13.136;2023-05-07T08:29:25;12.26;;;12.26;;
54328;SDS011;40710;51.120;13.136;2023-05-07T08:31:50;12.53;;;12.53;;
54328;SDS011;40710;51.120;13.136;2023-05-07T08:34:15;18.11;;;18.07;;
54328;SDS011;40710;51.120;13.136;2023-05-07T08:36:40;35.26;;;34.79;;
54328;SDS011;40710;51.120;13.136;2023-05-07T08:39:05;13.62;;;13.50;;
54328;SDS011;40710;51.120;13.136;2023-05-07T08:41:30;12.60;;;12.56;;
54328;SDS011;40710;51.120;13.136;2023-05-07T08:43:55;12.66;;;12.65;;
54328;SDS011;40710;51.120;13.136;2023-05-07T08:46:23;13.36;;;13.24;;
54328;SDS011;40710;51.120;13.136;2023-05-07T08:48:50;12.96;;;12.92;;
54328;SDS011;40710;51.120;13.136;2023-05-07T08:51:17;12.88;;;12.88;;
54328;SDS011;40710;51.120;13.136;2023-05-07T08:53:43;12.82;;;12.82;;
54328;SDS011;40710;51.120;13.136;2023-05-07T08:56:08;12.81;;;12.74;;
54328;SDS011;40710;51.120;13.136;2023-05-07T08:58:33;11.78;;;11.77;;
54328;SDS011;40710;51.120;13.136;2023-05-07T09:00:58;11.89;;;11.82;;
54328;SDS011;40710;51.120;13.136;2023-05-07T09:03:31;11.74;;;11.72;;
54328;SDS011;40710;51.120;13.136;2023-05-07T09:05:55;11.07;;;11.07;;
54328;SDS011;40710;51.120;13.136;2023-05-07T09:08:23;10.83;;;10.83;;
54328;SDS011;40710;51.120;13.136;2023-05-07T09:10:49;10.32;;;10.32;;
54328;SDS011;40710;51.120;13.136;2023-05-07T09:13:13;10.13;;;10.13;;
54328;SDS011;40710;51.120;13.136;2023-05-07T09:15:38;10.04;;;10.04;;
54328;SDS011;40710;51.120;13.136;2023-05-07T09:18:03;9.84;;;9.84;;
54328;SDS011;40710;51.120;13.136;2023-05-07T09:20:29;9.62;;;9.62;;
54328;SDS011;40710;51.120;13.136;2023-05-07T09:22:56;9.49;;;9.49;;
54328;SDS011;40710;51.120;13.136;2023-05-07T09:25:30;9.74;;;9.74;;
54328;SDS011;40710;51.120;13.136;2023-05-07T09:27:57;9.70;;;9.70;;
54328;SDS011;40710;51.120;13.136;2023-05-07T09:30:22;9.78;;;9.78;;
54328;SDS011;40710;51.120;13.136;2023-05-07T09:32:46;9.53;;;9.53;;
54328;SDS011;40710;51.120;13.136;2023-05-07T09:35:14;9.08;;;9.08;;
54328;SDS011;40710;51.120;13.136;2023-05-07T09:37:41;9.73;;;9.73;;
54328;SDS011;40710;51.120;13.136;2023-05-07T09:40:05;9.59;;;9.59;;
54328;SDS011;40710;51.120;13.136;2023-05-07T09:42:31;12.24;;;12.24;;
54328;SDS011;40710;51.120;13.136;2023-05-07T09:44:56;11.22;;;11.22;;
54328;SDS011;40710;51.120;13.136;2023-05-07T09:47:20;9.54;;;9.54;;
54328;SDS011;40710;51.120;13.136;2023-05-07T09:49:48;9.25;;;9.25;;
54328;SDS011;40710;51.120;13.136;2023-05-07T09:52:12;8.80;;;8.80;;
54328;SDS011;40710;51.120;13.136;2023-05-07T09:54:39;9.36;;;9.36;;
54328;SDS011;40710;51.120;13.136;2023-05-07T09:57:07;9.80;;;9.80;;
54328;SDS011;40710;51.120;13.136;2023-05-07T09:59:35;9.28;;;9.28;;
54328;SDS011;40710;51.120;13.136;2023-05-07T10:02:01;10.20;;;10.20;;
54328;SDS011;40710;51.120;13.136;2023-05-07T10:04:28;9.01;;;9.01;;
54328;SDS011;40710;51.120;13.136;2023-05-07T10:06:54;8.24;;;8.24;;
54328;SDS011;40710;51.120;13.136;2023-05-07T10:09:20;7.99;;;7.99;;
54328;SDS011;40710;51.120;13.136;2023-05-07T10:11:44;8.95;;;8.95;;
54328;SDS011;40710;51.120;13.136;2023-05-07T10:14:10;14.83;;;14.83;;
54328;SDS011;40710;51.120;13.136;2023-05-07T10:16:35;9.08;;;9.07;;
54328;SDS011;40710;51.120;13.136;2023-05-07T10:19:00;9.58;;;9.58;;
54328;SDS011;40710;51.120;13.136;2023-05-07T10:21:30;10.40;;;10.40;;
54328;SDS011;40710;51.120;13.136;2023-05-07T10:24:04;10.51;;;10.51;;
54328;SDS011;40710;51.120;13.136;2023-05-07T10:26:37;10.93;;;10.93;;
54328;SDS011;40710;51.120;13.136;2023-05-07T10:29:05;10.45;;;10.45;;
54328;SDS011;40710;51.120;13.136;2023-05-07T10:31:45;10.91;;;10.91;;
54328;SDS011;40710;51.120;13.136;2023-05-07T10:34:21;10.82;;;10.82;;
54328;SDS011;40710;51.120;13.136;2023-05-07T10:36:54;11.57;;;11.57;;
54328;SDS011;40710;51.120;13.136;2023-05-07T10:39:20;10.92;;;10.92;;
54328;SDS011;40710;51.120;13.136;2023-05-07T10:41:46;11.97;;;11.97;;
54328;SDS011;40710;51.120;13.136;2023-05-07T10:44:10;11.33;;;11.32;;
54328;SDS011;40710;51.120;13.136;2023-05-07T10:46:35;11.68;;;11.68;;
54328;SDS011;40710;51.120;13.136;2023-05-07T10:51:24;12.20;;;12.20;;
54328;SDS011;40710;51.120;13.136;2023-05-07T10:54:07;11.92;;;11.92;;
54328;SDS011;40710;51.120;13.136;2023-05-07T10:56:33;12.27;;;12.27;;
54328;SDS011;40710;51.120;13.136;2023-05-07T10:59:11;11.97;;;11.96;;
54328;SDS011;40710;51.120;13.136;2023-05-07T11:01:52;11.91;;;11.91;;
54328;SDS011;40710;51.120;13.136;2023-05-07T11:04:30;11.98;;;11.98;;
54328;SDS011;40710;51.120;13.136;2023-05-07T11:12:16;12.40;;;12.40;;
54328;SDS011;40710;51.120;13.136;2023-05-07T11:14:59;12.53;;;12.53;;
54328;SDS011;40710;51.120;13.136;2023-05-07T11:17:24;12.20;;;12.20;;
54328;SDS011;40710;51.120;13.136;2023-05-07T11:19:52;11.81;;;11.81;;
54328;SDS011;40710;51.120;13.136;2023-05-07T11:24:58;11.29;;;11.29;;
54328;SDS011;40710;51.120;13.136;2023-05-07T11:27:24;11.30;;;11.30;;
54328;SDS011;40710;51.120;13.136;2023-05-07T11:29:50;11.39;;;11.39;;
54328;SDS011;40710;51.120;13.136;2023-05-07T11:32:15;10.76;;;10.76;;
54328;SDS011;40710;51.120;13.136;2023-05-07T11:34:40;10.99;;;10.99;;
54328;SDS011;40710;51.120;13.136;2023-05-07T11:37:05;11.49;;;11.49;;
54328;SDS011;40710;51.120;13.136;2023-05-07T11:39:30;11.55;;;11.55;;
54328;SDS011;40710;51.120;13.136;2023-05-07T11:41:57;12.17;;;12.17;;
54328;SDS011;40710;51.120;13.136;2023-05-07T11:44:22;11.95;;;11.95;;
54328;SDS011;40710;51.120;13.136;2023-05-07T11:46:46;11.34;;;11.34;;
54328;SDS011;40710;51.120;13.136;2023-05-07T11:49:11;10.49;;;10.49;;
54328;SDS011;40710;51.120;13.136;2023-05-07T11:51:36;10.50;;;10.50;;
54328;SDS011;40710;51.120;13.136;2023-05-07T11:54:03;10.24;;;10.24;;
54328;SDS011;40710;51.120;13.136;2023-05-07T11:56:28;11.14;;;11.11;;
54328;SDS011;40710;51.120;13.136;2023-05-07T11:58:53;21.56;;;21.41;;
54328;SDS011;40710;51.120;13.136;2023-05-07T12:01:17;15.79;;;15.78;;
54328;SDS011;40710;51.120;13.136;2023-05-07T12:03:43;11.05;;;11.05;;
54328;SDS011;40710;51.120;13.136;2023-05-07T12:06:12;10.84;;;10.84;;
54328;SDS011;40710;51.120;13.136;2023-05-07T12:08:39;10.40;;;10.40;;
54328;SDS011;40710;51.120;13.136;2023-05-07T12:11:09;10.05;;;10.05;;
54328;SDS011;40710;51.120;13.136;2023-05-07T12:13:37;11.11;;;11.11;;
54328;SDS011;40710;51.120;13.136;2023-05-07T12:16:02;11.61;;;11.61;;
54328;SDS011;40710;51.120;13.136;2023-05-07T12:18:29;11.44;;;11.44;;
54328;SDS011;40710;51.120;13.136;2023-05-07T12:20:54;11.88;;;11.88;;
54328;SDS011;40710;51.120;13.136;2023-05-07T12:23:19;11.79;;;11.79;;
54328;SDS011;40710;51.120;13.136;2023-05-07T12:25:46;11.64;;;11.64;;
54328;SDS011;40710;51.120;13.136;2023-05-07T12:28:12;11.51;;;11.51;;
54328;SDS011;40710;51.120;13.136;2023-05-07T12:30:42;11.86;;;11.86;;
54328;SDS011;40710;51.120;13.136;2023-05-07T12:33:07;11.62;;;11.62;;
54328;SDS011;40710;51.120;13.136;2023-05-07T12:35:36;11.18;;;11.18;;
54328;SDS011;40710;51.120;13.136;2023-05-07T12:38:08;11.23;;;11.23;;
54328;SDS011;40710;51.120;13.136;2023-05-07T12:40:42;11.69;;;11.69;;
54328;SDS011;40710;51.120;13.136;2023-05-07T12:43:14;11.75;;;11.75;;
54328;SDS011;40710;51.120;13.136;2023-05-07T12:45:43;11.48;;;11.48;;
54328;SDS011;40710;51.120;13.136;2023-05-07T12:48:10;11.34;;;11.34;;
54328;SDS011;40710;51.120;13.136;2023-05-07T12:50:35;11.45;;;11.45;;
54328;SDS011;40710;51.120;13.136;2023-05-07T12:52:59;11.33;;;11.33;;
54328;SDS011;40710;51.120;13.136;2023-05-07T12:55:24;11.17;;;11.17;;
54328;SDS011;40710;51.120;13.136;2023-05-07T12:57:49;10.82;;;10.82;;
54328;SDS011;40710;51.120;13.136;2023-05-07T13:00:18;10.12;;;10.12;;
54328;SDS011;40710;51.120;13.136;2023-05-07T13:02:58;10.70;;;10.70;;
54328;SDS011;40710;51.120;13.136;2023-05-07T13:05:22;10.27;;;10.27;;
54328;SDS011;40710;51.120;13.136;2023-05-07T13:07:56;10.07;;;10.06;;
54328;SDS011;40710;51.120;13.136;2023-05-07T13:10:21;9.57;;;9.57;;
54328;SDS011;40710;51.120;13.136;2023-05-07T13:12:47;9.98;;;9.98;;
54328;SDS011;40710;51.120;13.136;2023-05-07T13:15:11;10.15;;;10.15;;
54328;SDS011;40710;51.120;13.136;2023-05-07T13:17:36;10.55;;;10.55;;
54328;SDS011;40710;51.120;13.136;2023-05-07T13:20:01;10.06;;;10.06;;
54328;SDS011;40710;51.120;13.136;2023-05-07T13:22:25;9.84;;;9.84;;
54328;SDS011;40710;51.120;13.136;2023-05-07T13:24:49;9.43;;;9.43;;
54328;SDS011;40710;51.120;13.136;2023-05-07T13:27:14;9.20;;;9.20;;
54328;SDS011;40710;51.120;13.136;2023-05-07T13:29:39;10.08;;;10.08;;
54328;SDS011;40710;51.120;13.136;2023-05-07T13:32:04;9.95;;;9.95;;
54328;SDS011;40710;51.120;13.136;2023-05-07T13:34:28;10.43;;;10.43;;
54328;SDS011;40710;51.120;13.136;2023-05-07T13:36:53;10.51;;;10.51;;
54328;SDS011;40710;51.120;13.136;2023-05-07T13:39:17;9.81;;;9.81;;
54328;SDS011;40710;51.120;13.136;2023-05-07T13:41:42;9.88;;;9.88;;
54328;SDS011;40710;51.120;13.136;2023-05-07T13:44:06;10.34;;;10.34;;
54328;SDS011;40710;51.120;13.136;2023-05-07T13:46:31;10.84;;;10.84;;
54328;SDS011;40710;51.120;13.136;2023-05-07T13:48:55;10.51;;;10.51;;
54328;SDS011;40710;51.120;13.136;2023-05-07T13:51:20;10.01;;;10.01;;
54328;SDS011;40710;51.120;13.136;2023-05-07T13:53:45;10.47;;;10.47;;
54328;SDS011;40710;51.120;13.136;2023-05-07T13:56:10;10.42;;;10.42;;
54328;SDS011;40710;51.120;13.136;2023-05-07T13:58:35;10.44;;;10.44;;
54328;SDS011;40710;51.120;13.136;2023-05-07T14:01:00;10.33;;;10.33;;
54328;SDS011;40710;51.120;13.136;2023-05-07T14:03:25;10.26;;;10.26;;
54328;SDS011;40710;51.120;13.136;2023-05-07T14:05:49;10.08;;;10.08;;
54328;SDS011;40710;51.120;13.136;2023-05-07T14:08:14;10.07;;;10.07;;
54328;SDS011;40710;51.120;13.136;2023-05-07T14:10:38;11.10;;;11.10;;
54328;SDS011;40710;51.120;13.136;2023-05-07T14:13:03;11.09;;;11.09;;